Usol'ye-Sibirskoye, Russia
Current Conditions -  °F | °C
As of 9:30 PM on Monday 20 Oct 2014 (Local Time) from UIII Reporting Station
Clear Clear  
Wind Chill: 15°   Ceiling: Unl
Heat Index: 21°   Visibility: 6mi
Dew Point: 10°   Wind: 4mph
Humidity: 63%   Direction: 90°E
Pressure: 30.18"   Gusts: NA
Location:  52.45°N, 103.39°E
Report Text: UIII 201330Z 09002MPS CAVOK M06/M12 Q1022 NOSIG RMK QFE724/096512CLRD60
Loading
Personal Weather Stations






























Interactive Weather Map
Tropical Storm Tracking
New forecast layout! Learn more

10-Day Weather Forecast

Advertisements
Track Severe Weather on mobile